메인 페이지
METAR-TAF:

METAR-TAF

공항 :

롤랑 가로스 공항

생드니, 레위니옹

위도: 20-53S, 경도: 055-31E, 고도: 21m

현재 날씨관측

예보는 39분 전, 22:00시(UTC)에 발표되었습니다.
6kt
온도 18°C
습도 83%
기압 1018 hPa
시정 10km 이상

METAR: FMEE 182200Z AUTO 19006KT 9999 NCD 18/15 Q1018 NOSIG

시각: 02:39 (22:39 UTC)

예보

예보는 5 시간 39분 전, 17:00시(UTC)에 발표되었습니다.
예보 대상 시간: 18일 18시부터 19일 24시까지 (UTC)
5kt
시정 10km 이상
고도 3000ft 상공 구름 조금
고도 6000ft 상공 구름 보통
전환 중
19일 04시부터 19일 06시까지 (UTC)
14kt
전환 중
19일 14시부터 19일 16시까지 (UTC)
남남동5kt

TAF: FMEE 181700Z 1818/1924 18005KT 9999 FEW030 SCT060 BECMG 1904/1906 10014KT BECMG 1914/1916 16005KT

4,000개 이상의 공항 관측 자료 및 예보 (METAR 및 TAF 보고).

지도상에서 검색 가능한 기상관측소가 노란 점과 빨간 점으로 표시되어 있습니다.

기상관측소 명을 보려면 표시 위로 마우스를 이동하세요.

날씨 관측과 예보를 보려면 클릭하세요.

지도 변경 : 확대하려면 엑스 표시가 있는 녹색 버튼, 축소하려면 빼기 표시가 있는 녹색 버튼, 다음 페이지의 지도를 보려면 녹색 화살표를 클릭하세요.


METAR-TAF: